createdAt,value
2018-07-20T00:03:08.292Z,13.52
2018-07-20T00:08:17.483Z,13.37
2018-07-20T00:13:26.773Z,13.40
2018-07-20T00:18:36.143Z,13.29
2018-07-20T00:23:45.731Z,13.28
2018-07-20T00:28:55.358Z,13.24
2018-07-20T00:34:03.911Z,13.24
2018-07-20T00:39:12.668Z,13.14
2018-07-20T00:44:21.958Z,13.05
2018-07-20T00:49:31.229Z,13.09
2018-07-20T00:54:40.826Z,13.11
2018-07-20T00:59:49.444Z,13.31
2018-07-20T01:04:58.555Z,13.13
2018-07-20T01:10:10.134Z,12.88
2018-07-20T01:15:19.394Z,12.73
2018-07-20T01:20:28.941Z,12.59
2018-07-20T01:25:37.472Z,12.64
2018-07-20T01:30:46.281Z,12.81
2018-07-20T01:35:55.746Z,12.75
2018-07-20T01:41:04.627Z,12.58
2018-07-20T01:46:13.643Z,12.44
2018-07-20T01:51:23.010Z,12.37
2018-07-20T01:56:32.191Z,12.37
2018-07-20T02:01:41.549Z,12.20
2018-07-20T02:06:50.829Z,12.14
2018-07-20T02:11:59.944Z,12.05
2018-07-20T02:17:08.927Z,11.86
2018-07-20T02:22:18.585Z,11.72
2018-07-20T02:27:27.705Z,11.55
2018-07-20T02:32:36.671Z,11.38
2018-07-20T02:37:45.304Z,11.35
2018-07-20T02:42:54.401Z,11.32
2018-07-20T02:48:03.607Z,11.27
2018-07-20T02:53:13.083Z,11.21
2018-07-20T02:58:22.317Z,11.12
2018-07-20T03:03:32.164Z,11.13
2018-07-20T03:08:41.034Z,11.07
2018-07-20T03:13:50.178Z,11.25
2018-07-20T03:18:59.287Z,11.48
2018-07-20T03:24:07.954Z,11.47
2018-07-20T03:29:17.392Z,11.49
2018-07-20T03:34:26.231Z,11.51
2018-07-20T03:39:35.327Z,11.56
2018-07-20T03:44:44.244Z,11.73
2018-07-20T03:49:53.589Z,11.90
2018-07-20T03:55:02.619Z,12.18
2018-07-20T04:00:12.044Z,12.32
2018-07-20T04:05:21.042Z,12.51
2018-07-20T04:10:30.060Z,12.77
2018-07-20T04:15:38.954Z,13.05
2018-07-20T04:20:48.557Z,13.26
2018-07-20T04:25:57.519Z,13.54
2018-07-20T04:31:07.054Z,13.93
2018-07-20T04:36:16.267Z,15.80
2018-07-20T04:41:25.149Z,20.51
2018-07-20T04:46:34.111Z,23.61
2018-07-20T04:51:43.294Z,25.76
2018-07-20T04:56:56.438Z,27.18
2018-07-20T05:02:05.862Z,27.22
2018-07-20T05:07:14.530Z,27.69
2018-07-20T05:12:23.568Z,29.34
2018-07-20T05:17:32.410Z,29.33
2018-07-20T05:22:41.468Z,29.75
2018-07-20T05:27:50.788Z,30.19
2018-07-20T05:33:00.283Z,32.12
2018-07-20T05:38:09.735Z,31.46
2018-07-20T05:43:18.809Z,30.53
2018-07-20T05:48:27.779Z,30.57
2018-07-20T05:53:36.861Z,33.03
2018-07-20T05:59:05.667Z,32.62
2018-07-20T06:04:15.231Z,31.02
2018-07-20T06:09:24.514Z,31.24
2018-07-20T06:14:33.708Z,33.56
2018-07-20T06:19:42.771Z,34.82
2018-07-20T06:24:51.903Z,34.78
2018-07-20T06:30:01.082Z,34.91
2018-07-20T06:35:10.103Z,35.52
2018-07-20T06:40:19.605Z,36.46
2018-07-20T06:45:29.080Z,35.13
2018-07-20T06:50:37.941Z,35.80
2018-07-20T06:55:47.213Z,36.98
2018-07-20T07:00:56.113Z,35.95
2018-07-20T07:06:05.457Z,35.93
2018-07-20T07:11:14.557Z,35.38
2018-07-20T07:16:23.390Z,36.36
2018-07-20T07:21:32.740Z,34.89
2018-07-20T07:26:42.840Z,35.25
2018-07-20T07:31:52.792Z,34.16
2018-07-20T07:37:01.559Z,34.65
2018-07-20T07:42:10.476Z,35.44
2018-07-20T07:47:19.413Z,32.27
2018-07-20T07:52:28.689Z,29.57
2018-07-20T07:57:37.856Z,28.93
2018-07-20T08:02:46.418Z,29.56
2018-07-20T08:07:55.416Z,30.10
2018-07-20T08:13:04.455Z,31.39
2018-07-20T08:18:13.625Z,31.06
2018-07-20T08:23:22.471Z,31.67
2018-07-20T08:28:31.856Z,33.47
2018-07-20T08:33:41.132Z,34.98
2018-07-20T08:38:49.669Z,35.98
2018-07-20T08:43:58.688Z,33.91
2018-07-20T08:49:07.597Z,34.00
2018-07-20T08:54:16.671Z,35.34
2018-07-20T08:59:26.579Z,34.87
2018-07-20T09:04:35.727Z,34.18
2018-07-20T09:09:44.748Z,34.08
2018-07-20T09:14:53.508Z,34.39
2018-07-20T09:20:02.631Z,34.17
2018-07-20T09:25:11.805Z,32.73
2018-07-20T09:30:20.763Z,34.13
2018-07-20T09:35:29.934Z,33.66
2018-07-20T09:40:39.007Z,33.93
2018-07-20T09:45:48.171Z,34.31
2018-07-20T09:50:57.031Z,33.64
2018-07-20T09:56:06.097Z,32.91
2018-07-20T10:01:15.477Z,34.32
2018-07-20T10:06:24.478Z,33.57
2018-07-20T10:11:34.067Z,32.44
2018-07-20T10:16:43.258Z,33.50
2018-07-20T10:21:52.294Z,32.58
2018-07-20T10:27:01.327Z,33.68
2018-07-20T10:32:10.992Z,33.00
2018-07-20T10:37:20.218Z,32.41
2018-07-20T10:42:29.167Z,32.19
2018-07-20T10:47:38.082Z,32.81
2018-07-20T10:52:47.022Z,31.48
2018-07-20T10:57:56.077Z,32.01
2018-07-20T11:03:04.972Z,32.05
2018-07-20T11:08:13.642Z,32.48
2018-07-20T11:13:22.752Z,31.98
2018-07-20T11:18:31.599Z,31.74
2018-07-20T11:23:41.952Z,31.60
2018-07-20T11:28:51.135Z,31.49
2018-07-20T11:34:00.109Z,32.15
2018-07-20T11:39:09.105Z,30.68
2018-07-20T11:44:18.451Z,30.77
2018-07-20T11:49:27.876Z,31.37
2018-07-20T11:54:36.765Z,30.70
2018-07-20T11:59:45.889Z,30.75
2018-07-20T12:04:54.762Z,30.48
2018-07-20T12:10:03.939Z,30.58
2018-07-20T12:15:13.515Z,30.80
2018-07-20T12:20:22.333Z,31.21
2018-07-20T12:25:31.268Z,31.41
2018-07-20T12:30:40.445Z,30.74
2018-07-20T12:35:49.591Z,31.42
2018-07-20T12:40:59.091Z,31.21
2018-07-20T12:46:07.978Z,30.35
2018-07-20T12:51:17.045Z,30.54
2018-07-20T12:56:26.095Z,29.66
2018-07-20T13:01:34.822Z,30.34
2018-07-20T13:06:44.136Z,29.75
2018-07-20T13:11:53.716Z,29.41
2018-07-20T13:17:03.359Z,29.86
2018-07-20T13:22:12.261Z,29.98
2018-07-20T13:27:21.336Z,30.89
2018-07-20T13:32:30.264Z,29.93
2018-07-20T13:37:39.528Z,30.91
2018-07-20T13:42:49.008Z,30.99
2018-07-20T13:47:58.470Z,30.39
2018-07-20T13:53:07.590Z,30.63
2018-07-20T13:58:16.657Z,31.14
2018-07-20T14:03:25.790Z,30.39
2018-07-20T14:08:35.320Z,30.78
2018-07-20T14:13:43.963Z,30.74
2018-07-20T14:18:53.278Z,30.73
2018-07-20T14:24:02.255Z,30.30
2018-07-20T14:29:11.125Z,30.15
2018-07-20T14:34:20.303Z,30.73
2018-07-20T14:39:29.805Z,31.40
2018-07-20T14:44:38.961Z,31.56
2018-07-20T14:49:48.338Z,31.42
2018-07-20T14:54:57.538Z,31.04
2018-07-20T15:00:06.627Z,31.42
2018-07-20T15:05:16.891Z,30.68
2018-07-20T15:10:25.576Z,31.09
2018-07-20T15:15:35.121Z,30.77
2018-07-20T15:20:44.708Z,30.08
2018-07-20T15:25:53.922Z,30.03
2018-07-20T15:31:02.861Z,30.55
2018-07-20T15:36:12.717Z,30.72
2018-07-20T15:41:21.720Z,30.78
2018-07-20T15:46:31.237Z,30.20
2018-07-20T15:53:35.206Z,30.54
2018-07-20T15:56:49.462Z,31.00
2018-07-20T16:01:58.562Z,30.61
2018-07-20T16:07:08.115Z,29.61
2018-07-20T16:12:17.767Z,29.33
2018-07-20T16:17:27.206Z,29.41
2018-07-20T16:22:36.187Z,29.29
2018-07-20T16:27:45.182Z,29.05
2018-07-20T16:32:54.401Z,28.97
2018-07-20T16:38:03.957Z,29.23
2018-07-20T16:43:13.538Z,29.05
2018-07-20T16:48:22.518Z,28.48
2018-07-20T16:53:31.795Z,28.60
2018-07-20T16:58:40.764Z,28.67
2018-07-20T17:03:50.452Z,28.99
2018-07-20T17:08:59.638Z,28.78
2018-07-20T17:14:09.247Z,28.25
2018-07-20T17:19:18.248Z,28.00
2018-07-20T17:24:28.102Z,28.13
2018-07-20T17:29:38.360Z,28.07
2018-07-20T17:34:48.011Z,28.13
2018-07-20T17:39:56.699Z,28.04
2018-07-20T17:45:05.968Z,27.73
2018-07-20T17:50:15.059Z,27.51
2018-07-20T18:00:31.046Z,27.13
2018-07-20T18:05:40.203Z,26.93
2018-07-20T18:10:49.846Z,26.64
2018-07-20T18:15:58.584Z,26.37
2018-07-20T18:21:08.098Z,26.01
2018-07-20T18:30:32.991Z,25.29
2018-07-20T18:35:41.912Z,24.72
2018-07-20T18:40:51.165Z,24.51
2018-07-20T18:46:00.495Z,24.20
2018-07-20T18:54:08.619Z,23.63
2018-07-20T18:59:17.463Z,23.42
2018-07-20T19:04:26.792Z,23.08
2018-07-20T19:09:36.091Z,22.79
2018-07-20T19:14:45.410Z,22.40
2018-07-20T19:19:54.630Z,22.22
2018-07-20T19:25:03.797Z,22.34
2018-07-20T19:30:12.806Z,22.27
2018-07-20T19:35:21.976Z,22.43
2018-07-20T19:40:31.201Z,22.21
2018-07-20T19:45:40.236Z,22.15
2018-07-20T19:50:49.389Z,21.95
2018-07-20T19:55:58.184Z,21.75
2018-07-20T20:01:07.509Z,21.83
2018-07-20T20:06:16.888Z,21.86
2018-07-20T20:11:25.478Z,21.58
2018-07-20T20:16:34.964Z,21.51
2018-07-20T20:21:43.671Z,21.35
2018-07-20T20:26:52.425Z,21.12
2018-07-20T20:32:01.001Z,20.71
2018-07-20T20:37:10.449Z,20.24
2018-07-20T20:42:19.157Z,19.99
2018-07-20T20:47:28.137Z,19.89
2018-07-20T20:52:38.050Z,19.53
2018-07-20T20:57:46.796Z,19.30
2018-07-20T21:02:55.382Z,19.07
2018-07-20T21:08:04.083Z,18.93
2018-07-20T21:13:13.311Z,18.80
2018-07-20T21:18:22.619Z,18.93
2018-07-20T21:23:31.153Z,18.89
2018-07-20T21:28:43.052Z,18.70
2018-07-20T21:33:51.738Z,18.39
2018-07-20T21:39:01.183Z,18.10
2018-07-20T21:44:13.868Z,17.83
2018-07-20T21:49:25.976Z,17.50
2018-07-20T21:54:35.423Z,17.25
2018-07-20T21:59:44.572Z,16.99
2018-07-20T22:04:53.913Z,16.79
2018-07-20T22:10:03.317Z,16.65
2018-07-20T22:15:12.377Z,16.52
2018-07-20T22:20:22.078Z,16.47
2018-07-20T22:25:30.939Z,16.28
2018-07-20T22:30:40.022Z,16.04
2018-07-20T22:35:48.994Z,15.92
2018-07-20T22:40:57.993Z,15.81
2018-07-20T22:46:07.103Z,15.83
2018-07-20T22:51:16.150Z,15.85
2018-07-20T23:01:41.666Z,16.78
2018-07-20T23:06:50.903Z,17.04
2018-07-20T23:11:59.852Z,16.79
2018-07-20T23:17:09.044Z,16.21
2018-07-20T23:22:18.454Z,15.76
2018-07-20T23:27:27.060Z,15.39
2018-07-20T23:32:35.638Z,15.13
2018-07-20T23:38:22.200Z,14.92
2018-07-20T23:43:33.607Z,14.75
2018-07-20T23:48:42.873Z,14.68
2018-07-20T23:53:51.873Z,14.51
2018-07-20T23:59:01.277Z,14.35
